createdAt,value
2023-01-13T00:00:00.672Z,3.20
2023-01-13T00:01:00.656Z,3.70
2023-01-13T00:02:00.663Z,2.79
2023-01-13T00:03:00.619Z,1.96
2023-01-13T00:04:00.607Z,2.06
2023-01-13T00:05:00.666Z,3.40
2023-01-13T00:06:00.613Z,2.06
2023-01-13T00:07:00.575Z,4.50
2023-01-13T00:08:00.559Z,2.48
2023-01-13T00:09:00.565Z,3.50
2023-01-13T00:10:00.544Z,2.27
2023-01-13T00:11:00.537Z,1.33
2023-01-13T00:12:00.507Z,1.43
2023-01-13T00:13:00.491Z,2.06
2023-01-13T00:14:00.482Z,3.09
2023-01-13T00:15:00.486Z,2.38
2023-01-13T00:16:00.538Z,3.30
2023-01-13T00:17:00.441Z,1.96
2023-01-13T00:18:00.428Z,2.06
2023-01-13T00:19:00.414Z,2.27
2023-01-13T00:20:00.418Z,1.22
2023-01-13T00:21:00.388Z,0.00
2023-01-13T00:22:00.377Z,1.54
2023-01-13T00:23:00.370Z,1.64
2023-01-13T00:24:00.358Z,2.17
2023-01-13T00:25:00.358Z,2.99
2023-01-13T00:26:00.322Z,4.69
2023-01-13T00:27:00.310Z,1.85
2023-01-13T00:28:00.299Z,2.38
2023-01-13T00:29:00.280Z,3.30
2023-01-13T00:30:00.288Z,2.17
2023-01-13T00:31:00.279Z,4.99
2023-01-13T00:32:00.247Z,1.43
2023-01-13T00:34:00.247Z,3.09
2023-01-13T00:35:00.206Z,2.69
2023-01-13T00:36:00.217Z,4.30
2023-01-13T00:37:00.183Z,2.27
2023-01-13T00:38:00.184Z,2.48
2023-01-13T00:39:00.165Z,4.60
2023-01-13T00:40:00.158Z,2.89
2023-01-13T00:41:00.152Z,2.99
2023-01-13T00:42:00.115Z,2.58
2023-01-13T00:43:00.113Z,3.40
2023-01-13T00:44:00.094Z,1.64
2023-01-13T00:45:00.083Z,2.48
2023-01-13T00:46:00.067Z,2.38
2023-01-13T00:47:00.062Z,3.50
2023-01-13T00:48:00.042Z,1.64
2023-01-13T00:49:00.030Z,2.06
2023-01-13T00:50:00.036Z,1.43
2023-01-13T00:51:00.004Z,2.27
2023-01-13T00:52:00.025Z,2.89
2023-01-13T00:52:59.980Z,1.43
2023-01-13T00:53:59.963Z,4.69
2023-01-13T00:54:59.950Z,4.60
2023-01-13T00:55:59.935Z,1.22
2023-01-13T00:56:59.946Z,1.11
2023-01-13T00:57:59.912Z,4.10
2023-01-13T00:58:59.900Z,2.99
2023-01-13T00:59:59.885Z,2.38
2023-01-13T01:00:59.998Z,1.01
2023-01-13T01:02:00.044Z,4.30
2023-01-13T01:02:59.849Z,2.27
2023-01-13T01:03:59.855Z,1.22
2023-01-13T01:04:59.823Z,2.38
2023-01-13T01:05:59.808Z,2.99
2023-01-13T01:06:59.797Z,2.58
2023-01-13T01:07:59.797Z,5.18
2023-01-13T01:08:59.779Z,3.50
2023-01-13T01:09:59.757Z,3.20
2023-01-13T01:10:59.742Z,4.00
2023-01-13T01:11:59.737Z,1.11
2023-01-13T01:12:59.740Z,1.01
2023-01-13T01:13:59.703Z,1.01
2023-01-13T01:14:59.692Z,2.27
2023-01-13T01:15:59.730Z,1.85
2023-01-13T01:16:59.669Z,1.96
2023-01-13T01:17:59.654Z,6.42
2023-01-13T01:18:59.643Z,1.11
2023-01-13T01:19:59.633Z,2.38
2023-01-13T01:20:59.618Z,1.43
2023-01-13T01:21:59.599Z,2.38
2023-01-13T01:22:59.596Z,3.70
2023-01-13T01:23:59.584Z,4.99
2023-01-13T01:24:59.568Z,2.89
2023-01-13T01:25:59.548Z,4.30
2023-01-13T01:26:59.539Z,4.20
2023-01-13T01:27:59.525Z,1.11
2023-01-13T01:28:59.554Z,1.96
2023-01-13T01:29:59.520Z,2.27
2023-01-13T01:30:59.496Z,6.70
2023-01-13T01:31:59.475Z,3.40
2023-01-13T01:32:59.460Z,1.33
2023-01-13T01:33:59.452Z,2.38
2023-01-13T01:34:59.435Z,3.80
2023-01-13T01:35:59.424Z,4.10
2023-01-13T01:36:59.417Z,2.48
2023-01-13T01:37:59.396Z,1.43
2023-01-13T01:38:59.396Z,2.89
2023-01-13T01:39:59.378Z,4.10
2023-01-13T01:40:59.360Z,4.00
2023-01-13T01:41:59.344Z,1.22
2023-01-13T01:42:59.336Z,2.69
2023-01-13T01:43:59.410Z,1.75
2023-01-13T01:44:59.328Z,1.22
2023-01-13T01:45:59.293Z,1.01
2023-01-13T01:46:59.313Z,2.27
2023-01-13T01:47:59.265Z,3.40
2023-01-13T01:48:59.259Z,2.27
2023-01-13T01:49:59.260Z,0.00
2023-01-13T01:50:59.229Z,3.30
2023-01-13T01:51:59.216Z,1.11
2023-01-13T01:52:59.203Z,3.09
2023-01-13T01:53:59.190Z,2.38
2023-01-13T01:54:59.185Z,3.40
2023-01-13T01:55:59.169Z,2.48
2023-01-13T01:56:59.149Z,0.00
2023-01-13T01:57:59.145Z,2.69
2023-01-13T01:58:59.160Z,0.79
2023-01-13T01:59:59.110Z,2.17
2023-01-13T02:00:59.353Z,3.09
2023-01-13T02:01:59.243Z,3.40
2023-01-13T02:02:59.071Z,2.38
2023-01-13T02:03:59.060Z,2.06
2023-01-13T02:04:59.046Z,2.38
2023-01-13T02:05:59.037Z,0.00
2023-01-13T02:06:59.031Z,3.90
2023-01-13T02:07:59.013Z,1.01
2023-01-13T02:08:58.995Z,0.90
2023-01-13T02:09:58.991Z,1.11
2023-01-13T02:10:58.970Z,1.64
2023-01-13T02:11:58.957Z,0.47
2023-01-13T02:12:58.961Z,3.30
2023-01-13T02:13:58.931Z,2.27
2023-01-13T02:14:58.919Z,1.85
2023-01-13T02:15:58.987Z,2.27
2023-01-13T02:16:58.923Z,2.17
2023-01-13T02:17:58.880Z,0.47
2023-01-13T02:18:58.870Z,4.00
2023-01-13T02:19:58.861Z,3.20
2023-01-13T02:20:58.843Z,0.90
2023-01-13T02:21:58.835Z,0.90
2023-01-13T02:22:58.820Z,2.48
2023-01-13T02:23:58.805Z,1.01
2023-01-13T02:24:58.790Z,1.96
2023-01-13T02:25:58.772Z,2.17
2023-01-13T02:26:58.771Z,0.00
2023-01-13T02:27:58.750Z,0.47
2023-01-13T02:28:58.738Z,3.09
2023-01-13T02:29:58.730Z,3.60
2023-01-13T02:30:58.712Z,2.38
2023-01-13T02:31:58.736Z,2.48
2023-01-13T02:32:58.717Z,1.54
2023-01-13T02:33:58.676Z,1.43
2023-01-13T02:34:58.661Z,0.79
2023-01-13T02:35:58.649Z,2.06
2023-01-13T02:36:58.636Z,0.00
2023-01-13T02:37:58.620Z,1.64
2023-01-13T02:38:58.623Z,0.00
2023-01-13T02:39:58.594Z,1.64
2023-01-13T02:40:58.581Z,2.06
2023-01-13T02:41:58.570Z,2.17
2023-01-13T02:42:58.563Z,3.09
2023-01-13T02:43:58.543Z,5.57
2023-01-13T02:44:58.531Z,0.58
2023-01-13T02:45:58.592Z,2.79
2023-01-13T02:46:58.513Z,1.54
2023-01-13T02:47:58.518Z,3.70
2023-01-13T02:48:58.507Z,2.48
2023-01-13T02:49:58.480Z,0.00
2023-01-13T02:50:58.455Z,1.54
2023-01-13T02:51:58.439Z,2.58
2023-01-13T02:52:58.432Z,2.17
2023-01-13T02:53:58.422Z,1.75
2023-01-13T02:54:58.406Z,1.01
2023-01-13T02:55:58.388Z,3.70
2023-01-13T02:56:58.378Z,2.48
2023-01-13T02:57:58.365Z,4.30
2023-01-13T02:58:58.351Z,2.38
2023-01-13T02:59:58.314Z,4.30
2023-01-13T03:00:58.457Z,2.06
2023-01-13T03:01:58.491Z,3.30
2023-01-13T03:02:58.306Z,1.85
2023-01-13T03:03:58.251Z,1.64
2023-01-13T03:04:58.270Z,2.79
2023-01-13T03:05:58.223Z,4.60
2023-01-13T03:06:58.212Z,5.85
2023-01-13T03:07:58.201Z,1.85
2023-01-13T03:08:58.200Z,0.68
2023-01-13T03:09:58.171Z,2.58
2023-01-13T03:10:58.170Z,1.01
2023-01-13T03:11:58.147Z,1.75
2023-01-13T03:12:58.136Z,1.11
2023-01-13T03:13:58.154Z,3.09
2023-01-13T03:14:58.110Z,1.22
2023-01-13T03:15:58.094Z,0.90
2023-01-13T03:16:58.083Z,2.58
2023-01-13T03:17:58.069Z,1.22
2023-01-13T03:18:58.079Z,1.85
2023-01-13T03:19:58.049Z,1.43
2023-01-13T03:20:58.055Z,2.06
2023-01-13T03:21:58.017Z,0.68
2023-01-13T03:22:58.011Z,2.38
2023-01-13T03:23:57.997Z,2.17
2023-01-13T03:24:57.987Z,2.79
2023-01-13T03:25:57.967Z,2.48
2023-01-13T03:26:57.954Z,1.85
2023-01-13T03:27:57.940Z,1.43
2023-01-13T03:28:57.927Z,1.33
2023-01-13T03:29:57.914Z,2.48
2023-01-13T03:30:57.921Z,3.30
2023-01-13T03:31:57.905Z,3.09
2023-01-13T03:32:57.876Z,2.99
2023-01-13T03:33:57.861Z,1.96
2023-01-13T03:34:57.850Z,5.57
2023-01-13T03:35:57.844Z,0.58
2023-01-13T03:36:57.922Z,1.54
2023-01-13T03:37:57.811Z,0.47
2023-01-13T03:38:57.810Z,0.58
2023-01-13T03:39:57.786Z,4.69
2023-01-13T03:40:57.771Z,5.66
2023-01-13T03:41:57.759Z,2.17
2023-01-13T03:42:57.747Z,1.85
2023-01-13T03:43:57.732Z,2.58
2023-01-13T03:44:57.730Z,3.90
2023-01-13T03:45:57.789Z,4.40
2023-01-13T03:46:57.693Z,2.17
2023-01-13T03:47:57.680Z,1.01
2023-01-13T03:48:57.669Z,1.75
2023-01-13T03:49:57.650Z,0.00
2023-01-13T03:50:57.640Z,1.11
2023-01-13T03:51:57.623Z,1.54
2023-01-13T03:52:57.643Z,2.58
2023-01-13T03:53:57.598Z,0.00
2023-01-13T03:54:57.589Z,2.27
2023-01-13T03:55:57.572Z,1.85
2023-01-13T03:56:57.562Z,1.43
2023-01-13T03:57:57.595Z,3.40
2023-01-13T03:58:57.539Z,3.09
2023-01-13T03:59:57.522Z,0.00
2023-01-13T04:00:57.654Z,0.00
2023-01-13T04:01:57.693Z,0.00
2023-01-13T04:02:57.488Z,0.00
2023-01-13T04:03:57.603Z,0.00
2023-01-13T04:04:57.467Z,0.00
2023-01-13T04:05:57.437Z,1.01
2023-01-13T04:06:57.429Z,1.01
2023-01-13T04:07:57.412Z,0.00
2023-01-13T04:08:57.430Z,0.00
2023-01-13T04:09:57.526Z,2.69
2023-01-13T04:10:57.375Z,0.90
2023-01-13T04:11:57.366Z,2.58
2023-01-13T04:12:57.355Z,2.17
2023-01-13T04:13:57.341Z,1.85
2023-01-13T04:14:57.334Z,1.96
2023-01-13T04:15:57.408Z,0.00
2023-01-13T04:16:57.295Z,0.00
2023-01-13T04:17:57.284Z,1.22
2023-01-13T04:18:57.270Z,0.00
2023-01-13T04:19:57.256Z,0.00
2023-01-13T04:20:57.247Z,0.00
2023-01-13T04:21:57.229Z,1.11
2023-01-13T04:22:57.232Z,1.75
2023-01-13T04:23:57.205Z,3.70
2023-01-13T04:24:57.215Z,0.00
2023-01-13T04:25:57.191Z,0.00
2023-01-13T04:26:57.172Z,4.20
2023-01-13T04:27:57.152Z,4.20
2023-01-13T04:28:57.135Z,0.79
2023-01-13T04:29:57.131Z,4.30
2023-01-13T04:30:57.153Z,5.57
2023-01-13T04:31:57.102Z,1.96
2023-01-13T04:32:57.092Z,1.33
2023-01-13T04:33:57.077Z,1.43
2023-01-13T04:34:57.066Z,2.17
2023-01-13T04:35:57.049Z,3.70
2023-01-13T04:36:57.056Z,3.30
2023-01-13T04:37:57.026Z,2.69
2023-01-13T04:38:57.010Z,1.54
2023-01-13T04:39:57.000Z,2.38
2023-01-13T04:40:57.026Z,2.48
2023-01-13T04:41:56.975Z,4.69
2023-01-13T04:42:56.963Z,1.96
2023-01-13T04:43:56.951Z,1.22
2023-01-13T04:44:56.938Z,0.47
2023-01-13T04:45:56.989Z,1.96
2023-01-13T04:46:56.910Z,0.00
2023-01-13T04:47:56.901Z,0.79
2023-01-13T04:48:56.888Z,0.68
2023-01-13T04:49:56.877Z,4.00
2023-01-13T04:50:56.866Z,0.58
2023-01-13T04:51:56.849Z,2.48
2023-01-13T04:52:56.834Z,2.17
2023-01-13T04:53:56.820Z,1.22
2023-01-13T04:54:56.818Z,1.22
2023-01-13T04:55:56.801Z,0.47
2023-01-13T04:56:56.821Z,0.00
2023-01-13T04:57:56.769Z,0.00
2023-01-13T04:58:56.758Z,0.00
2023-01-13T04:59:56.742Z,2.06
2023-01-13T05:00:56.796Z,0.00
2023-01-13T05:01:56.784Z,0.47
2023-01-13T05:02:56.724Z,1.96
2023-01-13T05:03:56.695Z,0.00
2023-01-13T05:04:56.775Z,0.00
2023-01-13T05:05:56.673Z,0.00
2023-01-13T05:06:56.653Z,1.11
2023-01-13T05:07:56.639Z,1.01
2023-01-13T05:08:56.629Z,1.33
2023-01-13T05:09:56.615Z,0.00
2023-01-13T05:10:56.605Z,2.58
2023-01-13T05:11:56.590Z,3.60
2023-01-13T05:12:56.604Z,0.90
2023-01-13T05:13:56.562Z,1.96
2023-01-13T05:14:56.559Z,0.58
2023-01-13T05:15:56.596Z,3.20
2023-01-13T05:16:56.529Z,2.79
2023-01-13T05:17:56.509Z,0.00
2023-01-13T05:18:56.498Z,1.43
2023-01-13T05:19:56.484Z,0.68
2023-01-13T05:20:56.471Z,3.50
2023-01-13T05:21:56.463Z,1.43
2023-01-13T05:22:56.444Z,1.64
2023-01-13T05:23:56.433Z,1.33
2023-01-13T05:24:56.425Z,1.64
2023-01-13T05:25:56.410Z,0.00
2023-01-13T05:26:56.399Z,1.54
2023-01-13T05:27:56.381Z,0.00
2023-01-13T05:28:56.409Z,0.79
2023-01-13T05:29:56.359Z,1.01
2023-01-13T05:30:56.382Z,0.00
2023-01-13T05:31:56.338Z,0.00
2023-01-13T05:32:56.320Z,0.68
2023-01-13T05:33:56.304Z,1.64
2023-01-13T05:34:56.307Z,1.64
2023-01-13T05:35:56.279Z,1.11
2023-01-13T05:36:56.268Z,1.75
2023-01-13T05:37:56.260Z,2.48
2023-01-13T05:38:56.242Z,1.85
2023-01-13T05:39:56.228Z,1.01
2023-01-13T05:40:56.217Z,0.47
2023-01-13T05:41:56.217Z,1.22
2023-01-13T05:42:56.197Z,2.17
2023-01-13T05:43:56.176Z,2.06
2023-01-13T05:44:56.198Z,2.79
2023-01-13T05:45:56.153Z,3.30
2023-01-13T05:46:56.137Z,1.54
2023-01-13T05:47:56.126Z,4.00
2023-01-13T05:48:56.124Z,2.17
2023-01-13T05:49:56.098Z,0.90
2023-01-13T05:50:56.087Z,1.11
2023-01-13T05:51:56.072Z,2.17
2023-01-13T05:52:56.069Z,0.68
2023-01-13T05:53:56.049Z,2.17
2023-01-13T05:54:56.035Z,2.17
2023-01-13T05:55:56.033Z,1.43
2023-01-13T05:56:56.020Z,0.90
2023-01-13T05:57:55.998Z,1.75
2023-01-13T05:58:55.994Z,1.11
2023-01-13T05:59:55.970Z,0.47
2023-01-13T06:00:56.041Z,2.38
2023-01-13T06:01:55.948Z,1.85
2023-01-13T06:02:55.983Z,1.54
2023-01-13T06:03:55.919Z,0.00
2023-01-13T06:04:55.909Z,0.58
2023-01-13T06:05:55.895Z,0.00
2023-01-13T06:06:55.883Z,0.79
2023-01-13T06:07:55.870Z,2.06
2023-01-13T06:08:55.857Z,1.33
2023-01-13T06:09:55.845Z,0.79
2023-01-13T06:10:55.838Z,0.00
2023-01-13T06:11:55.847Z,0.00
2023-01-13T06:12:55.808Z,0.00
2023-01-13T06:13:55.806Z,1.54
2023-01-13T06:14:55.780Z,0.00
2023-01-13T06:15:55.923Z,1.75
2023-01-13T06:16:55.779Z,1.85
2023-01-13T06:17:55.748Z,0.90
2023-01-13T06:18:55.744Z,1.75
2023-01-13T06:19:55.729Z,2.58
2023-01-13T06:20:55.714Z,0.58
2023-01-13T06:21:55.691Z,3.20
2023-01-13T06:22:55.681Z,2.38
2023-01-13T06:23:55.665Z,1.01
2023-01-13T06:24:55.664Z,0.79
2023-01-13T06:25:55.649Z,0.00
2023-01-13T06:26:55.630Z,0.79
2023-01-13T06:27:55.619Z,2.69
2023-01-13T06:28:55.608Z,2.48
2023-01-13T06:29:55.595Z,0.90
2023-01-13T06:30:55.578Z,1.11
2023-01-13T06:31:55.566Z,1.96
2023-01-13T06:32:55.581Z,3.50
2023-01-13T06:33:55.553Z,2.99
2023-01-13T06:34:55.535Z,1.01
2023-01-13T06:35:55.521Z,3.50
2023-01-13T06:36:55.506Z,2.89
2023-01-13T06:37:55.498Z,0.90
2023-01-13T06:38:55.476Z,1.64
2023-01-13T06:39:55.464Z,1.75
2023-01-13T06:40:55.454Z,3.40
2023-01-13T06:41:55.438Z,2.27
2023-01-13T06:42:55.435Z,1.22
2023-01-13T06:43:55.414Z,2.48
2023-01-13T06:44:55.399Z,2.17
2023-01-13T06:45:55.386Z,0.79
2023-01-13T06:46:55.399Z,0.00
2023-01-13T06:47:55.361Z,0.00
2023-01-13T06:48:55.375Z,1.01
2023-01-13T06:49:55.335Z,0.00
2023-01-13T06:50:55.322Z,2.17
2023-01-13T06:51:55.320Z,1.11
2023-01-13T06:52:55.320Z,0.90
2023-01-13T06:53:55.293Z,0.00
2023-01-13T06:54:55.270Z,0.79
2023-01-13T06:55:55.262Z,1.01
2023-01-13T06:56:55.246Z,0.00
2023-01-13T06:57:55.237Z,1.22
2023-01-13T06:58:55.222Z,0.00
2023-01-13T06:59:55.209Z,0.00
2023-01-13T07:00:55.327Z,0.00
2023-01-13T07:01:55.293Z,0.58
2023-01-13T07:02:55.237Z,0.00
2023-01-13T07:03:55.187Z,2.79
2023-01-13T07:04:55.174Z,1.85
2023-01-13T07:05:55.153Z,2.17
2023-01-13T07:06:55.127Z,1.96
2023-01-13T07:07:55.111Z,1.43
2023-01-13T07:08:55.095Z,4.99
2023-01-13T07:09:55.086Z,1.43
2023-01-13T07:10:55.072Z,1.96
2023-01-13T07:11:55.064Z,3.09
2023-01-13T07:12:55.050Z,3.90
2023-01-13T07:13:55.043Z,2.69
2023-01-13T07:14:55.023Z,0.68
2023-01-13T07:15:55.008Z,2.58
2023-01-13T07:16:54.997Z,1.75
2023-01-13T07:17:54.988Z,2.79
2023-01-13T07:18:54.972Z,0.47
2023-01-13T07:19:54.957Z,0.90
2023-01-13T07:20:55.061Z,1.22
2023-01-13T07:21:54.954Z,0.00
2023-01-13T07:22:54.931Z,0.58
2023-01-13T07:23:54.910Z,0.00
2023-01-13T07:24:54.899Z,2.99
2023-01-13T07:25:54.889Z,1.33
2023-01-13T07:26:54.878Z,0.79
2023-01-13T07:27:54.857Z,1.43
2023-01-13T07:28:54.844Z,1.22
2023-01-13T07:29:54.835Z,1.54
2023-01-13T07:30:54.826Z,0.00
2023-01-13T07:31:54.891Z,1.75
2023-01-13T07:32:54.793Z,2.48
2023-01-13T07:33:54.789Z,2.79
2023-01-13T07:34:54.778Z,2.06
2023-01-13T07:35:54.762Z,2.79
2023-01-13T07:36:54.766Z,2.06
2023-01-13T07:37:54.739Z,1.64
2023-01-13T07:38:55.039Z,0.00
2023-01-13T07:39:54.710Z,4.10
2023-01-13T07:40:54.712Z,1.33
2023-01-13T07:41:54.699Z,0.68
2023-01-13T07:42:54.672Z,2.27
2023-01-13T07:43:54.662Z,3.60
2023-01-13T07:44:54.643Z,2.38
2023-01-13T07:45:54.638Z,0.90
2023-01-13T07:46:54.624Z,0.79
2023-01-13T07:47:54.604Z,1.75
2023-01-13T07:48:54.612Z,0.00
2023-01-13T07:49:54.590Z,5.08
2023-01-13T07:50:54.568Z,1.64
2023-01-13T07:51:54.563Z,0.00
2023-01-13T07:52:54.572Z,2.06
2023-01-13T07:53:54.536Z,1.22
2023-01-13T07:54:54.518Z,0.68
2023-01-13T07:55:54.505Z,4.00
2023-01-13T07:56:54.496Z,1.22
2023-01-13T07:57:54.484Z,2.79
2023-01-13T07:58:54.471Z,1.33
2023-01-13T07:59:54.464Z,3.40
2023-01-13T08:00:54.544Z,2.27
2023-01-13T08:01:54.662Z,0.00
2023-01-13T08:02:54.483Z,2.99
2023-01-13T08:03:54.408Z,3.09
2023-01-13T08:04:54.395Z,4.30
2023-01-13T08:05:54.380Z,0.00
2023-01-13T08:06:54.380Z,0.90
2023-01-13T08:07:54.361Z,3.70
2023-01-13T08:08:54.370Z,2.79
2023-01-13T08:09:54.362Z,3.80
2023-01-13T08:10:54.328Z,3.60
2023-01-13T08:11:54.313Z,2.27
2023-01-13T08:12:56.868Z,3.20
2023-01-13T08:13:54.289Z,1.43
2023-01-13T08:14:54.281Z,0.90
2023-01-13T08:15:54.270Z,3.70
2023-01-13T08:16:54.290Z,4.10
2023-01-13T08:17:54.239Z,1.96
2023-01-13T08:18:54.221Z,2.58
2023-01-13T08:19:54.233Z,1.33
2023-01-13T08:20:54.196Z,0.90
2023-01-13T08:21:54.186Z,2.79
2023-01-13T08:22:54.167Z,2.79
2023-01-13T08:23:54.154Z,1.64
2023-01-13T08:24:54.181Z,4.69
2023-01-13T08:25:54.142Z,2.17
2023-01-13T08:26:54.125Z,2.48
2023-01-13T08:27:54.114Z,0.90
2023-01-13T08:28:54.094Z,2.99
2023-01-13T08:29:54.080Z,2.27
2023-01-13T08:30:54.128Z,2.99
2023-01-13T08:31:54.065Z,1.96
2023-01-13T08:32:54.037Z,1.54
2023-01-13T08:34:54.039Z,2.58
2023-01-13T08:35:54.007Z,3.20
2023-01-13T08:36:53.995Z,3.09
2023-01-13T08:37:53.998Z,1.43
2023-01-13T08:38:53.961Z,3.30
2023-01-13T08:39:53.949Z,6.33
2023-01-13T08:40:53.958Z,9.24
2023-01-13T08:41:53.923Z,15.90
2023-01-13T08:42:53.917Z,11.71
2023-01-13T08:43:53.897Z,14.05
2023-01-13T08:44:53.883Z,10.71
2023-01-13T08:45:53.952Z,11.88
2023-01-13T08:46:53.858Z,10.62
2023-01-13T08:47:53.847Z,11.96
2023-01-13T08:48:53.834Z,11.46
2023-01-13T08:49:53.823Z,12.69
2023-01-13T08:50:53.814Z,13.81
2023-01-13T08:51:53.796Z,7.72
2023-01-13T08:52:53.784Z,8.53
2023-01-13T08:53:53.770Z,9.93
2023-01-13T08:54:53.755Z,9.24
2023-01-13T08:55:53.743Z,9.41
2023-01-13T08:56:53.850Z,11.88
2023-01-13T08:57:58.200Z,15.98
2023-01-13T08:58:53.705Z,2.69
2023-01-13T08:59:53.696Z,11.96
2023-01-13T09:00:53.751Z,14.13
2023-01-13T09:01:53.744Z,16.20
2023-01-13T09:02:53.652Z,19.07
2023-01-13T09:03:53.645Z,13.26
2023-01-13T09:04:53.626Z,14.13
2023-01-13T09:05:53.612Z,16.13
2023-01-13T09:06:53.600Z,10.02
2023-01-13T09:07:53.621Z,15.22
2023-01-13T09:08:53.577Z,1.54
2023-01-13T09:09:53.565Z,2.17
2023-01-13T09:10:53.546Z,3.20
2023-01-13T09:11:53.540Z,4.99
2023-01-13T09:12:53.575Z,4.40
2023-01-13T09:13:53.513Z,2.27
2023-01-13T09:14:53.507Z,1.22
2023-01-13T09:15:53.552Z,4.00
2023-01-13T09:16:53.473Z,4.50
2023-01-13T09:17:53.460Z,3.20
2023-01-13T09:18:53.454Z,4.20
2023-01-13T09:19:53.435Z,4.00
2023-01-13T09:20:53.423Z,2.17
2023-01-13T09:21:53.419Z,4.40
2023-01-13T09:22:53.393Z,3.30
2023-01-13T09:23:53.381Z,0.00
2023-01-13T09:24:53.369Z,5.95
2023-01-13T09:25:53.361Z,3.20
2023-01-13T09:26:53.344Z,5.66
2023-01-13T09:27:53.337Z,15.90
2023-01-13T09:28:53.338Z,2.58
2023-01-13T09:29:53.310Z,2.17
2023-01-13T09:30:53.329Z,2.58
2023-01-13T09:31:53.283Z,0.58
2023-01-13T09:32:53.263Z,17.32
2023-01-13T09:33:53.254Z,6.52
2023-01-13T09:34:53.239Z,2.69
2023-01-13T09:35:53.233Z,4.40
2023-01-13T09:36:53.215Z,2.69
2023-01-13T09:37:53.198Z,2.17
2023-01-13T09:38:53.186Z,1.96
2023-01-13T09:39:53.183Z,2.58
2023-01-13T09:40:53.162Z,0.58
2023-01-13T09:41:53.153Z,2.99
2023-01-13T09:42:53.138Z,2.58
2023-01-13T09:43:53.145Z,2.06
2023-01-13T09:44:53.138Z,3.50
2023-01-13T09:45:53.100Z,0.00
2023-01-13T09:46:53.101Z,0.58
2023-01-13T09:47:53.072Z,3.50
2023-01-13T09:48:53.058Z,1.96
2023-01-13T09:49:53.061Z,1.96
2023-01-13T09:50:53.032Z,2.79
2023-01-13T09:51:53.020Z,2.79
2023-01-13T09:52:53.008Z,0.00
2023-01-13T09:53:52.995Z,2.79
2023-01-13T09:54:52.981Z,1.64
2023-01-13T09:55:53.039Z,2.89
2023-01-13T09:56:52.963Z,4.30
2023-01-13T09:57:52.947Z,3.40
2023-01-13T09:58:52.934Z,6.33
2023-01-13T09:59:52.921Z,1.22
2023-01-13T10:00:52.957Z,2.38
2023-01-13T10:01:52.896Z,2.79
2023-01-13T10:02:52.882Z,0.90
2023-01-13T10:03:52.930Z,8.08
2023-01-13T10:04:52.913Z,1.22
2023-01-13T10:05:52.867Z,3.80
2023-01-13T10:06:52.842Z,8.17
2023-01-13T10:07:52.826Z,1.43
2023-01-13T10:08:52.821Z,10.62
2023-01-13T10:09:52.832Z,2.27
2023-01-13T10:10:52.784Z,2.17
2023-01-13T10:11:52.778Z,4.40
2023-01-13T10:12:52.760Z,5.28
2023-01-13T10:13:52.753Z,4.40
2023-01-13T10:14:52.759Z,4.50
2023-01-13T10:15:52.745Z,2.58
2023-01-13T10:16:52.740Z,1.64
2023-01-13T10:17:52.703Z,1.54
2023-01-13T10:18:52.688Z,1.11
2023-01-13T10:19:52.678Z,3.09
2023-01-13T10:20:52.660Z,1.85
2023-01-13T10:21:52.653Z,4.89
2023-01-13T10:22:52.639Z,1.11
2023-01-13T10:23:52.632Z,2.79
2023-01-13T10:24:52.612Z,3.30
2023-01-13T10:25:52.651Z,2.58
2023-01-13T10:26:52.591Z,3.09
2023-01-13T10:27:52.585Z,3.70
2023-01-13T10:28:52.567Z,3.90
2023-01-13T10:29:52.562Z,4.50
2023-01-13T10:30:52.587Z,4.20
2023-01-13T10:31:52.524Z,4.69
2023-01-13T10:32:52.540Z,2.89
2023-01-13T10:33:52.499Z,8.35
2023-01-13T10:34:52.516Z,4.20
2023-01-13T10:35:52.470Z,2.89
2023-01-13T10:36:52.456Z,2.48
2023-01-13T10:37:52.452Z,4.69
2023-01-13T10:38:52.434Z,2.27
2023-01-13T10:39:52.426Z,6.98
2023-01-13T10:40:52.421Z,4.99
2023-01-13T10:41:52.400Z,4.99
2023-01-13T10:42:52.384Z,1.75
2023-01-13T10:43:52.373Z,4.30
2023-01-13T10:44:52.397Z,2.89
2023-01-13T10:45:52.347Z,1.54
2023-01-13T10:46:52.391Z,4.30
2023-01-13T10:47:52.321Z,2.58
2023-01-13T10:48:52.339Z,2.48
2023-01-13T10:49:52.300Z,5.57
2023-01-13T10:50:52.288Z,1.54
2023-01-13T10:51:52.359Z,4.30
2023-01-13T10:52:52.264Z,4.60
2023-01-13T10:53:52.249Z,1.11
2023-01-13T10:54:52.245Z,4.40
2023-01-13T10:55:54.798Z,5.37
2023-01-13T10:56:52.218Z,2.38
2023-01-13T10:57:52.204Z,3.20
2023-01-13T10:58:52.209Z,1.11
2023-01-13T10:59:52.179Z,1.96
2023-01-13T11:00:52.266Z,3.40
2023-01-13T11:01:53.869Z,2.06
2023-01-13T11:02:52.258Z,1.11
2023-01-13T11:03:52.127Z,0.58
2023-01-13T11:04:52.218Z,3.20
2023-01-13T11:05:52.113Z,2.17
2023-01-13T11:06:52.124Z,2.69
2023-01-13T11:07:52.095Z,3.20
2023-01-13T11:08:52.068Z,5.08
2023-01-13T11:09:52.059Z,1.85
2023-01-13T11:10:52.046Z,3.80
2023-01-13T11:11:52.033Z,0.68
2023-01-13T11:12:52.029Z,4.50
2023-01-13T11:13:52.010Z,3.30
2023-01-13T11:14:52.016Z,4.79
2023-01-13T11:15:52.062Z,1.54
2023-01-13T11:16:53.740Z,3.50
2023-01-13T11:17:51.961Z,3.90
2023-01-13T11:18:52.113Z,1.96
2023-01-13T11:19:51.974Z,4.50
2023-01-13T11:20:51.961Z,2.58
2023-01-13T11:21:51.919Z,4.10
2023-01-13T11:22:51.917Z,7.54
2023-01-13T11:23:51.886Z,4.99
2023-01-13T11:24:51.891Z,3.30
2023-01-13T11:25:51.860Z,0.00
2023-01-13T11:26:51.855Z,1.75
2023-01-13T11:27:51.832Z,2.79
2023-01-13T11:28:51.820Z,4.10
2023-01-13T11:29:51.813Z,2.58
2023-01-13T11:30:51.801Z,2.99
2023-01-13T11:31:51.797Z,0.47
2023-01-13T11:32:51.784Z,1.64
2023-01-13T11:33:51.761Z,15.60
2023-01-13T11:34:51.749Z,16.13
2023-01-13T11:35:51.740Z,8.08
2023-01-13T11:36:51.770Z,16.95
2023-01-13T11:37:51.706Z,12.04
2023-01-13T11:38:51.695Z,11.29
2023-01-13T11:39:51.679Z,10.28
2023-01-13T11:40:51.669Z,13.73
2023-01-13T11:41:51.655Z,9.15
2023-01-13T11:42:51.645Z,10.02
2023-01-13T11:43:51.627Z,9.50
2023-01-13T11:44:51.617Z,10.36
2023-01-13T11:45:51.603Z,8.97
2023-01-13T11:46:51.652Z,15.67
2023-01-13T11:47:51.589Z,17.69
2023-01-13T11:48:51.576Z,20.22
2023-01-13T11:49:51.552Z,19.36
2023-01-13T11:50:51.563Z,22.54
2023-01-13T11:52:51.537Z,18.71
2023-01-13T11:53:51.503Z,18.93
2023-01-13T11:54:51.486Z,9.85
2023-01-13T11:55:51.474Z,1.64
2023-01-13T11:56:51.462Z,16.73
2023-01-13T11:57:51.448Z,16.73
2023-01-13T11:58:51.587Z,15.90
2023-01-13T11:59:51.418Z,17.47
2023-01-13T12:00:51.412Z,17.69
2023-01-13T12:01:51.402Z,17.77
2023-01-13T12:02:51.483Z,16.95
2023-01-13T12:03:51.374Z,17.18
2023-01-13T12:04:51.362Z,19.65
2023-01-13T12:05:51.344Z,16.35
2023-01-13T12:06:51.338Z,16.88
2023-01-13T12:07:51.317Z,15.90
2023-01-13T12:08:51.329Z,12.61
2023-01-13T12:09:51.296Z,16.73
2023-01-13T12:10:51.282Z,16.28
2023-01-13T12:11:51.267Z,16.58
2023-01-13T12:12:51.253Z,15.37
2023-01-13T12:13:51.245Z,3.70
2023-01-13T12:14:51.241Z,3.30
2023-01-13T12:15:51.215Z,1.11
2023-01-13T12:16:51.305Z,2.17
2023-01-13T12:17:51.188Z,3.60
2023-01-13T12:18:51.176Z,0.90
2023-01-13T12:19:51.188Z,1.43
2023-01-13T12:20:51.151Z,1.54
2023-01-13T12:21:51.134Z,2.17
2023-01-13T12:22:51.126Z,1.75
2023-01-13T12:23:51.116Z,4.00
2023-01-13T12:24:51.140Z,2.17
2023-01-13T12:25:51.090Z,3.80
2023-01-13T12:26:51.081Z,2.17
2023-01-13T12:27:51.062Z,1.85
2023-01-13T12:28:51.156Z,3.70
2023-01-13T12:29:51.043Z,2.89
2023-01-13T12:30:51.036Z,2.48
2023-01-13T12:31:51.123Z,0.90
2023-01-13T12:32:50.994Z,1.33
2023-01-13T12:33:50.981Z,1.54
2023-01-13T12:34:50.974Z,1.33
2023-01-13T12:35:50.963Z,2.79
2023-01-13T12:36:50.941Z,2.17
2023-01-13T12:37:50.930Z,2.06
2023-01-13T12:38:50.948Z,3.30
2023-01-13T12:39:50.914Z,1.85
2023-01-13T12:40:50.923Z,8.89
2023-01-13T12:41:50.880Z,9.76
2023-01-13T12:42:50.871Z,10.87
2023-01-13T12:43:50.853Z,7.72
2023-01-13T12:44:50.839Z,3.90
2023-01-13T12:45:50.906Z,3.60
2023-01-13T12:46:50.824Z,5.08
2023-01-13T12:47:50.825Z,3.09
2023-01-13T12:48:50.797Z,4.79
2023-01-13T12:49:50.772Z,9.76
2023-01-13T12:50:50.764Z,4.60
2023-01-13T12:51:50.762Z,6.42
2023-01-13T12:52:50.748Z,3.90
2023-01-13T12:53:50.720Z,2.38
2023-01-13T12:54:50.708Z,3.80
2023-01-13T12:55:50.693Z,3.80
2023-01-13T12:56:50.743Z,2.06
2023-01-13T12:57:50.668Z,3.60
2023-01-13T12:58:50.668Z,10.45
2023-01-13T12:59:50.645Z,2.38
2023-01-13T13:00:50.661Z,2.38
2023-01-13T13:01:50.738Z,2.17
2023-01-13T13:02:50.656Z,5.47
2023-01-13T13:03:50.594Z,4.69
2023-01-13T13:04:50.579Z,4.69
2023-01-13T13:05:50.579Z,9.50
2023-01-13T13:06:50.552Z,3.50
2023-01-13T13:07:50.540Z,6.98
2023-01-13T13:08:50.528Z,4.50
2023-01-13T13:09:50.513Z,4.60
2023-01-13T13:10:50.499Z,4.20
2023-01-13T13:11:50.488Z,4.50
2023-01-13T13:12:50.526Z,6.80
2023-01-13T13:13:50.462Z,6.80
2023-01-13T13:14:50.487Z,15.67
2023-01-13T13:15:50.439Z,2.99
2023-01-13T13:16:50.442Z,1.75
2023-01-13T13:17:50.409Z,6.80
2023-01-13T13:18:50.397Z,12.77